sensor_id;sensor_type;location;lat;lon;timestamp;pressure;altitude;pressure_sealevel;temperature;humidity
24336;BME280;33098;52.400;16.880;2023-09-19T00:00:57;99887.83;;;19.87;100.00
24336;BME280;33098;52.400;16.880;2023-09-19T00:03:40;99895.98;;;19.81;100.00
24336;BME280;33098;52.400;16.880;2023-09-19T00:06:12;99893.98;;;19.71;100.00
24336;BME280;33098;52.400;16.880;2023-09-19T00:08:44;99885.30;;;19.75;100.00
24336;BME280;33098;52.400;16.880;2023-09-19T00:11:11;99889.86;;;19.82;100.00
24336;BME280;33098;52.400;16.880;2023-09-19T00:13:43;99901.09;;;19.76;100.00
24336;BME280;33098;52.400;16.880;2023-09-19T00:16:11;99906.61;;;19.62;100.00
24336;BME280;33098;52.400;16.880;2023-09-19T00:18:41;99914.05;;;19.53;100.00
24336;BME280;33098;52.400;16.880;2023-09-19T00:21:12;99916.54;;;19.53;100.00
24336;BME280;33098;52.400;16.880;2023-09-19T00:23:39;99924.73;;;19.45;100.00
24336;BME280;33098;52.400;16.880;2023-09-19T00:26:08;99929.44;;;19.36;100.00
24336;BME280;33098;52.400;16.880;2023-09-19T00:28:39;99932.41;;;19.26;100.00
24336;BME280;33098;52.400;16.880;2023-09-19T00:31:09;99934.95;;;19.26;100.00
24336;BME280;33098;52.400;16.880;2023-09-19T00:33:36;99932.54;;;19.23;100.00
24336;BME280;33098;52.400;16.880;2023-09-19T00:36:08;99925.52;;;19.08;100.00
24336;BME280;33098;52.400;16.880;2023-09-19T00:38:35;99920.24;;;18.97;100.00
24336;BME280;33098;52.400;16.880;2023-09-19T00:41:02;99915.36;;;18.91;100.00
24336;BME280;33098;52.400;16.880;2023-09-19T00:43:29;99917.11;;;18.96;100.00
24336;BME280;33098;52.400;16.880;2023-09-19T00:45:56;99918.30;;;18.89;100.00
24336;BME280;33098;52.400;16.880;2023-09-19T00:48:25;99912.86;;;18.83;100.00
24336;BME280;33098;52.400;16.880;2023-09-19T00:51:02;99909.75;;;18.84;100.00
24336;BME280;33098;52.400;16.880;2023-09-19T00:53:32;99909.41;;;18.85;100.00
24336;BME280;33098;52.400;16.880;2023-09-19T00:56:04;99908.14;;;18.90;100.00
24336;BME280;33098;52.400;16.880;2023-09-19T00:58:36;99906.61;;;18.84;100.00
24336;BME280;33098;52.400;16.880;2023-09-19T01:01:04;99905.56;;;18.83;100.00
24336;BME280;33098;52.400;16.880;2023-09-19T01:03:35;99906.47;;;18.89;100.00
24336;BME280;33098;52.400;16.880;2023-09-19T01:06:07;99903.48;;;18.91;100.00
24336;BME280;33098;52.400;16.880;2023-09-19T01:08:40;99902.33;;;18.87;100.00
24336;BME280;33098;52.400;16.880;2023-09-19T01:11:35;99898.55;;;18.92;100.00
24336;BME280;33098;52.400;16.880;2023-09-19T01:18:07;99903.00;;;18.92;100.00
24336;BME280;33098;52.400;16.880;2023-09-19T01:20:09;99906.30;;;19.00;100.00
24336;BME280;33098;52.400;16.880;2023-09-19T01:25:42;99909.42;;;19.04;100.00
24336;BME280;33098;52.400;16.880;2023-09-19T01:30:58;99904.76;;;19.11;100.00
24336;BME280;33098;52.400;16.880;2023-09-19T01:36:36;99906.16;;;19.21;100.00
24336;BME280;33098;52.400;16.880;2023-09-19T01:39:10;99895.90;;;19.28;100.00
24336;BME280;33098;52.400;16.880;2023-09-19T01:41:51;99894.77;;;19.27;100.00
24336;BME280;33098;52.400;16.880;2023-09-19T01:44:40;99892.20;;;19.33;100.00
24336;BME280;33098;52.400;16.880;2023-09-19T01:53:04;99884.97;;;19.32;100.00
24336;BME280;33098;52.400;16.880;2023-09-19T01:55:37;99889.30;;;19.33;100.00
24336;BME280;33098;52.400;16.880;2023-09-19T01:58:34;99885.75;;;19.34;100.00
24336;BME280;33098;52.400;16.880;2023-09-19T02:01:08;99895.41;;;19.29;100.00
24336;BME280;33098;52.400;16.880;2023-09-19T02:03:43;99894.58;;;19.27;100.00
24336;BME280;33098;52.400;16.880;2023-09-19T02:06:18;99891.96;;;19.29;100.00
24336;BME280;33098;52.400;16.880;2023-09-19T02:08:54;99884.45;;;19.30;100.00
24336;BME280;33098;52.400;16.880;2023-09-19T02:11:22;99885.45;;;19.35;100.00
24336;BME280;33098;52.400;16.880;2023-09-19T02:13:54;99882.19;;;19.31;100.00
24336;BME280;33098;52.400;16.880;2023-09-19T02:16:24;99885.00;;;19.30;100.00
24336;BME280;33098;52.400;16.880;2023-09-19T02:18:51;99884.09;;;19.26;100.00
24336;BME280;33098;52.400;16.880;2023-09-19T02:21:22;99885.17;;;19.23;100.00
24336;BME280;33098;52.400;16.880;2023-09-19T02:23:49;99884.32;;;19.18;100.00
24336;BME280;33098;52.400;16.880;2023-09-19T02:26:21;99886.21;;;19.15;100.00
24336;BME280;33098;52.400;16.880;2023-09-19T02:28:49;99888.42;;;19.17;100.00
24336;BME280;33098;52.400;16.880;2023-09-19T02:31:15;99891.05;;;19.15;100.00
24336;BME280;33098;52.400;16.880;2023-09-19T02:33:47;99890.60;;;19.14;100.00
24336;BME280;33098;52.400;16.880;2023-09-19T02:36:17;99893.80;;;19.10;100.00
24336;BME280;33098;52.400;16.880;2023-09-19T02:38:47;99899.85;;;19.13;100.00
24336;BME280;33098;52.400;16.880;2023-09-19T02:41:14;99894.48;;;19.19;100.00
24336;BME280;33098;52.400;16.880;2023-09-19T02:43:45;99894.52;;;19.20;100.00
24336;BME280;33098;52.400;16.880;2023-09-19T02:46:12;99900.25;;;19.20;100.00
24336;BME280;33098;52.400;16.880;2023-09-19T02:48:41;99899.42;;;19.16;100.00
24336;BME280;33098;52.400;16.880;2023-09-19T02:51:08;99899.20;;;19.11;100.00
24336;BME280;33098;52.400;16.880;2023-09-19T02:53:35;99900.48;;;19.11;100.00
24336;BME280;33098;52.400;16.880;2023-09-19T02:56:07;99906.61;;;19.06;100.00
24336;BME280;33098;52.400;16.880;2023-09-19T02:58:34;99909.59;;;19.04;100.00
24336;BME280;33098;52.400;16.880;2023-09-19T03:01:13;99913.10;;;18.99;100.00
24336;BME280;33098;52.400;16.880;2023-09-19T03:03:41;99912.28;;;18.95;100.00
24336;BME280;33098;52.400;16.880;2023-09-19T03:06:08;99906.77;;;18.92;100.00
24336;BME280;33098;52.400;16.880;2023-09-19T03:08:35;99901.46;;;18.84;100.00
24336;BME280;33098;52.400;16.880;2023-09-19T03:11:03;99894.84;;;18.71;100.00
24336;BME280;33098;52.400;16.880;2023-09-19T03:13:35;99887.16;;;18.62;100.00
24336;BME280;33098;52.400;16.880;2023-09-19T03:16:07;99899.88;;;18.60;100.00
24336;BME280;33098;52.400;16.880;2023-09-19T03:18:35;99898.95;;;18.63;100.00
24336;BME280;33098;52.400;16.880;2023-09-19T03:21:02;99901.61;;;18.54;100.00
24336;BME280;33098;52.400;16.880;2023-09-19T03:23:31;99896.98;;;18.43;100.00
24336;BME280;33098;52.400;16.880;2023-09-19T03:25:58;99895.27;;;18.41;100.00
24336;BME280;33098;52.400;16.880;2023-09-19T03:28:26;99888.19;;;18.37;100.00
24336;BME280;33098;52.400;16.880;2023-09-19T03:31:05;99881.88;;;18.35;100.00
24336;BME280;33098;52.400;16.880;2023-09-19T03:33:35;99879.81;;;18.31;100.00
24336;BME280;33098;52.400;16.880;2023-09-19T03:36:08;99877.65;;;18.33;100.00
24336;BME280;33098;52.400;16.880;2023-09-19T03:38:35;99879.23;;;18.36;100.00
24336;BME280;33098;52.400;16.880;2023-09-19T03:41:03;99874.95;;;18.33;100.00
24336;BME280;33098;52.400;16.880;2023-09-19T03:43:29;99869.82;;;18.30;100.00
24336;BME280;33098;52.400;16.880;2023-09-19T03:46:01;99867.67;;;18.27;100.00
24336;BME280;33098;52.400;16.880;2023-09-19T03:48:38;99861.32;;;18.24;100.00
24336;BME280;33098;52.400;16.880;2023-09-19T03:51:12;99866.84;;;18.24;100.00
24336;BME280;33098;52.400;16.880;2023-09-19T03:53:43;99863.98;;;18.22;100.00
24336;BME280;33098;52.400;16.880;2023-09-19T03:56:10;99867.96;;;18.22;100.00
24336;BME280;33098;52.400;16.880;2023-09-19T03:58:37;99868.80;;;18.20;100.00
24336;BME280;33098;52.400;16.880;2023-09-19T04:01:13;99873.02;;;18.14;100.00
24336;BME280;33098;52.400;16.880;2023-09-19T04:03:43;99878.45;;;18.10;100.00
24336;BME280;33098;52.400;16.880;2023-09-19T04:06:15;99879.19;;;18.13;100.00
24336;BME280;33098;52.400;16.880;2023-09-19T04:08:53;99881.37;;;18.18;100.00
24336;BME280;33098;52.400;16.880;2023-09-19T04:11:22;99880.16;;;18.14;100.00
24336;BME280;33098;52.400;16.880;2023-09-19T04:13:52;99880.21;;;18.12;100.00
24336;BME280;33098;52.400;16.880;2023-09-19T04:16:27;99884.77;;;18.09;100.00
24336;BME280;33098;52.400;16.880;2023-09-19T04:18:57;99885.63;;;18.09;100.00
24336;BME280;33098;52.400;16.880;2023-09-19T04:21:24;99877.49;;;18.08;100.00
24336;BME280;33098;52.400;16.880;2023-09-19T04:23:51;99876.77;;;18.09;100.00
24336;BME280;33098;52.400;16.880;2023-09-19T04:26:18;99875.45;;;18.04;100.00
24336;BME280;33098;52.400;16.880;2023-09-19T04:28:47;99875.23;;;18.00;100.00
24336;BME280;33098;52.400;16.880;2023-09-19T04:31:14;99881.02;;;17.98;100.00
24336;BME280;33098;52.400;16.880;2023-09-19T04:33:41;99888.88;;;17.97;100.00
24336;BME280;33098;52.400;16.880;2023-09-19T04:36:10;99889.82;;;17.96;100.00
24336;BME280;33098;52.400;16.880;2023-09-19T04:38:37;99890.02;;;17.95;100.00
24336;BME280;33098;52.400;16.880;2023-09-19T04:41:09;99885.19;;;17.94;100.00
24336;BME280;33098;52.400;16.880;2023-09-19T04:43:39;99885.46;;;17.95;100.00
24336;BME280;33098;52.400;16.880;2023-09-19T04:46:06;99883.44;;;17.93;100.00
24336;BME280;33098;52.400;16.880;2023-09-19T04:48:35;99884.33;;;17.93;100.00
24336;BME280;33098;52.400;16.880;2023-09-19T04:51:06;99888.02;;;17.98;100.00
24336;BME280;33098;52.400;16.880;2023-09-19T04:53:33;99891.06;;;18.04;100.00
24336;BME280;33098;52.400;16.880;2023-09-19T04:56:00;99892.11;;;18.10;100.00
24336;BME280;33098;52.400;16.880;2023-09-19T04:58:27;99891.77;;;18.12;100.00
24336;BME280;33098;52.400;16.880;2023-09-19T05:00:56;99891.86;;;18.16;100.00
24336;BME280;33098;52.400;16.880;2023-09-19T05:03:29;99898.11;;;18.18;100.00
24336;BME280;33098;52.400;16.880;2023-09-19T05:05:58;99899.70;;;18.16;100.00
24336;BME280;33098;52.400;16.880;2023-09-19T05:08:31;99899.83;;;18.17;100.00
24336;BME280;33098;52.400;16.880;2023-09-19T05:10:58;99905.54;;;18.19;100.00
24336;BME280;33098;52.400;16.880;2023-09-19T05:13:24;99902.63;;;18.21;100.00
24336;BME280;33098;52.400;16.880;2023-09-19T05:15:53;99901.69;;;18.24;100.00
24336;BME280;33098;52.400;16.880;2023-09-19T05:18:26;99905.27;;;18.19;100.00
24336;BME280;33098;52.400;16.880;2023-09-19T05:20:54;99907.77;;;18.04;100.00
24336;BME280;33098;52.400;16.880;2023-09-19T05:23:21;99908.55;;;18.02;100.00
24336;BME280;33098;52.400;16.880;2023-09-19T05:25:48;99911.92;;;18.00;100.00
24336;BME280;33098;52.400;16.880;2023-09-19T05:28:15;99909.52;;;18.00;100.00
24336;BME280;33098;52.400;16.880;2023-09-19T05:30:42;99910.32;;;18.01;100.00
24336;BME280;33098;52.400;16.880;2023-09-19T05:33:09;99918.61;;;18.07;100.00
24336;BME280;33098;52.400;16.880;2023-09-19T05:35:36;99921.04;;;18.07;100.00
24336;BME280;33098;52.400;16.880;2023-09-19T05:38:08;99919.15;;;18.01;100.00
24336;BME280;33098;52.400;16.880;2023-09-19T05:40:39;99921.73;;;17.94;100.00
24336;BME280;33098;52.400;16.880;2023-09-19T05:43:09;99920.65;;;17.91;100.00
24336;BME280;33098;52.400;16.880;2023-09-19T05:45:35;99921.95;;;17.95;100.00
24336;BME280;33098;52.400;16.880;2023-09-19T05:48:11;99920.00;;;17.99;100.00
24336;BME280;33098;52.400;16.880;2023-09-19T05:50:40;99921.25;;;17.98;100.00
24336;BME280;33098;52.400;16.880;2023-09-19T05:53:07;99922.02;;;17.94;100.00
24336;BME280;33098;52.400;16.880;2023-09-19T05:55:34;99923.02;;;18.00;100.00
24336;BME280;33098;52.400;16.880;2023-09-19T05:58:04;99924.78;;;18.06;100.00
24336;BME280;33098;52.400;16.880;2023-09-19T06:00:31;99923.94;;;18.08;100.00
24336;BME280;33098;52.400;16.880;2023-09-19T06:02:59;99919.52;;;18.11;100.00
24336;BME280;33098;52.400;16.880;2023-09-19T06:05:30;99926.21;;;18.12;100.00
24336;BME280;33098;52.400;16.880;2023-09-19T06:07:58;99929.48;;;18.15;100.00
24336;BME280;33098;52.400;16.880;2023-09-19T06:10:34;99935.08;;;18.21;100.00
24336;BME280;33098;52.400;16.880;2023-09-19T06:13:04;99935.00;;;18.15;100.00
24336;BME280;33098;52.400;16.880;2023-09-19T06:15:36;99932.23;;;18.16;100.00
24336;BME280;33098;52.400;16.880;2023-09-19T06:18:03;99938.61;;;18.24;100.00
24336;BME280;33098;52.400;16.880;2023-09-19T06:20:31;99938.59;;;18.31;100.00
24336;BME280;33098;52.400;16.880;2023-09-19T06:23:00;99943.64;;;18.23;100.00
24336;BME280;33098;52.400;16.880;2023-09-19T06:25:28;99946.70;;;18.18;100.00
24336;BME280;33098;52.400;16.880;2023-09-19T06:27:57;99950.88;;;18.19;100.00
24336;BME280;33098;52.400;16.880;2023-09-19T06:30:24;99960.80;;;18.17;100.00
24336;BME280;33098;52.400;16.880;2023-09-19T06:32:58;99961.23;;;18.18;100.00
24336;BME280;33098;52.400;16.880;2023-09-19T06:35:28;99965.16;;;18.20;100.00
24336;BME280;33098;52.400;16.880;2023-09-19T06:38:02;99961.89;;;18.15;100.00
24336;BME280;33098;52.400;16.880;2023-09-19T06:40:31;99965.06;;;18.11;100.00
24336;BME280;33098;52.400;16.880;2023-09-19T06:42:58;99971.05;;;18.08;100.00
24336;BME280;33098;52.400;16.880;2023-09-19T06:45:25;99969.31;;;18.05;100.00
24336;BME280;33098;52.400;16.880;2023-09-19T06:47:56;99977.10;;;18.10;100.00
24336;BME280;33098;52.400;16.880;2023-09-19T06:50:24;99984.85;;;18.21;100.00
24336;BME280;33098;52.400;16.880;2023-09-19T06:52:53;99987.61;;;18.32;100.00
24336;BME280;33098;52.400;16.880;2023-09-19T06:55:21;99997.09;;;18.31;100.00
24336;BME280;33098;52.400;16.880;2023-09-19T06:57:51;100002.38;;;18.23;100.00
24336;BME280;33098;52.400;16.880;2023-09-19T07:00:19;100008.70;;;18.19;100.00
24336;BME280;33098;52.400;16.880;2023-09-19T07:03:05;100005.56;;;18.22;100.00
24336;BME280;33098;52.400;16.880;2023-09-19T07:05:35;100006.06;;;18.22;100.00
24336;BME280;33098;52.400;16.880;2023-09-19T07:08:09;100010.89;;;18.25;100.00
24336;BME280;33098;52.400;16.880;2023-09-19T07:10:39;100010.91;;;18.30;100.00
24336;BME280;33098;52.400;16.880;2023-09-19T07:13:16;100009.93;;;18.33;100.00
24336;BME280;33098;52.400;16.880;2023-09-19T07:15:45;100013.45;;;18.38;100.00
24336;BME280;33098;52.400;16.880;2023-09-19T07:18:16;100022.41;;;18.39;100.00
24336;BME280;33098;52.400;16.880;2023-09-19T07:20:47;100026.75;;;18.43;100.00
24336;BME280;33098;52.400;16.880;2023-09-19T07:23:18;100028.56;;;18.44;100.00
24336;BME280;33098;52.400;16.880;2023-09-19T07:25:47;100033.85;;;18.45;100.00
24336;BME280;33098;52.400;16.880;2023-09-19T07:28:15;100033.77;;;18.54;100.00
24336;BME280;33098;52.400;16.880;2023-09-19T07:30:45;100034.90;;;18.55;100.00
24336;BME280;33098;52.400;16.880;2023-09-19T07:33:12;100040.20;;;18.60;100.00
24336;BME280;33098;52.400;16.880;2023-09-19T07:35:39;100047.36;;;18.75;100.00
24336;BME280;33098;52.400;16.880;2023-09-19T07:38:08;100046.45;;;18.88;100.00
24336;BME280;33098;52.400;16.880;2023-09-19T07:40:38;100046.41;;;18.99;100.00
24336;BME280;33098;52.400;16.880;2023-09-19T07:43:05;100050.17;;;19.06;100.00
24336;BME280;33098;52.400;16.880;2023-09-19T07:45:33;100052.23;;;19.08;100.00
24336;BME280;33098;52.400;16.880;2023-09-19T07:48:03;100050.47;;;19.16;100.00
24336;BME280;33098;52.400;16.880;2023-09-19T07:50:43;100057.20;;;19.26;100.00
24336;BME280;33098;52.400;16.880;2023-09-19T07:53:21;100056.38;;;19.37;100.00
24336;BME280;33098;52.400;16.880;2023-09-19T07:55:48;100055.95;;;19.49;100.00
24336;BME280;33098;52.400;16.880;2023-09-19T07:58:15;100059.98;;;19.59;100.00
24336;BME280;33098;52.400;16.880;2023-09-19T08:00:47;100060.10;;;19.59;100.00
24336;BME280;33098;52.400;16.880;2023-09-19T08:03:16;100057.29;;;19.57;100.00
24336;BME280;33098;52.400;16.880;2023-09-19T08:05:46;100060.92;;;19.72;100.00
24336;BME280;33098;52.400;16.880;2023-09-19T08:08:21;100061.65;;;19.88;100.00
24336;BME280;33098;52.400;16.880;2023-09-19T08:10:58;100066.70;;;20.05;100.00
24336;BME280;33098;52.400;16.880;2023-09-19T08:13:28;100073.52;;;20.05;100.00
24336;BME280;33098;52.400;16.880;2023-09-19T08:15:56;100074.13;;;20.08;100.00
24336;BME280;33098;52.400;16.880;2023-09-19T08:18:22;100083.80;;;20.16;100.00
24336;BME280;33098;52.400;16.880;2023-09-19T08:20:52;100089.04;;;20.16;100.00
24336;BME280;33098;52.400;16.880;2023-09-19T08:23:20;100089.54;;;20.19;100.00
24336;BME280;33098;52.400;16.880;2023-09-19T08:25:47;100094.66;;;20.24;100.00
24336;BME280;33098;52.400;16.880;2023-09-19T08:28:14;100096.70;;;20.39;100.00
24336;BME280;33098;52.400;16.880;2023-09-19T08:30:46;100098.54;;;20.53;100.00
24336;BME280;33098;52.400;16.880;2023-09-19T08:33:15;100099.54;;;20.63;100.00
24336;BME280;33098;52.400;16.880;2023-09-19T08:35:45;100101.93;;;20.55;100.00
24336;BME280;33098;52.400;16.880;2023-09-19T08:38:12;100100.48;;;20.48;100.00
24336;BME280;33098;52.400;16.880;2023-09-19T08:40:41;100111.20;;;20.50;100.00
24336;BME280;33098;52.400;16.880;2023-09-19T08:43:09;100119.83;;;20.53;100.00
24336;BME280;33098;52.400;16.880;2023-09-19T08:45:37;100114.81;;;20.56;100.00
24336;BME280;33098;52.400;16.880;2023-09-19T08:48:23;100117.41;;;20.62;100.00
24336;BME280;33098;52.400;16.880;2023-09-19T08:51:07;100117.88;;;20.61;100.00
24336;BME280;33098;52.400;16.880;2023-09-19T08:53:41;100111.30;;;20.48;100.00
24336;BME280;33098;52.400;16.880;2023-09-19T08:56:12;100121.88;;;20.44;99.48
24336;BME280;33098;52.400;16.880;2023-09-19T08:59:02;100116.66;;;20.34;99.75
24336;BME280;33098;52.400;16.880;2023-09-19T09:01:35;100117.28;;;20.37;99.50
24336;BME280;33098;52.400;16.880;2023-09-19T09:04:02;100114.93;;;20.48;100.00
24336;BME280;33098;52.400;16.880;2023-09-19T09:06:30;100111.80;;;20.61;99.98
24336;BME280;33098;52.400;16.880;2023-09-19T09:09:02;100110.77;;;20.62;99.04
24336;BME280;33098;52.400;16.880;2023-09-19T09:11:35;100106.43;;;20.66;97.78
24336;BME280;33098;52.400;16.880;2023-09-19T09:14:09;100117.84;;;20.67;96.16
24336;BME280;33098;52.400;16.880;2023-09-19T09:16:36;100110.13;;;20.60;94.57
24336;BME280;33098;52.400;16.880;2023-09-19T09:19:05;100120.00;;;20.56;93.98
24336;BME280;33098;52.400;16.880;2023-09-19T09:21:34;100120.66;;;20.54;93.77
24336;BME280;33098;52.400;16.880;2023-09-19T09:24:26;100126.27;;;20.61;94.74
24336;BME280;33098;52.400;16.880;2023-09-19T09:26:59;100132.81;;;20.66;92.06
24336;BME280;33098;52.400;16.880;2023-09-19T09:29:47;100140.11;;;20.62;91.51
24336;BME280;33098;52.400;16.880;2023-09-19T09:32:26;100141.13;;;20.60;89.16
24336;BME280;33098;52.400;16.880;2023-09-19T09:34:57;100146.30;;;20.53;87.85
24336;BME280;33098;52.400;16.880;2023-09-19T09:37:25;100148.52;;;20.41;87.03
24336;BME280;33098;52.400;16.880;2023-09-19T09:39:58;100153.65;;;20.39;85.93
24336;BME280;33098;52.400;16.880;2023-09-19T09:42:39;100160.42;;;20.24;84.33
24336;BME280;33098;52.400;16.880;2023-09-19T09:45:23;100164.21;;;20.17;85.54
24336;BME280;33098;52.400;16.880;2023-09-19T09:48:04;100176.39;;;20.13;84.23
24336;BME280;33098;52.400;16.880;2023-09-19T09:50:47;100178.27;;;20.17;84.94
24336;BME280;33098;52.400;16.880;2023-09-19T09:53:25;100177.52;;;20.31;84.57
24336;BME280;33098;52.400;16.880;2023-09-19T09:56:06;100178.13;;;20.45;83.68
24336;BME280;33098;52.400;16.880;2023-09-19T09:58:37;100185.73;;;20.65;85.15
24336;BME280;33098;52.400;16.880;2023-09-19T10:01:08;100184.32;;;20.75;83.12
24336;BME280;33098;52.400;16.880;2023-09-19T10:03:42;100186.04;;;20.82;81.75
24336;BME280;33098;52.400;16.880;2023-09-19T10:06:16;100191.09;;;20.89;80.97
24336;BME280;33098;52.400;16.880;2023-09-19T10:09:08;100188.25;;;21.09;81.69
24336;BME280;33098;52.400;16.880;2023-09-19T10:11:45;100194.52;;;21.36;82.03
24336;BME280;33098;52.400;16.880;2023-09-19T10:14:15;100193.47;;;21.57;80.17
24336;BME280;33098;52.400;16.880;2023-09-19T10:16:53;100193.77;;;21.77;78.04
24336;BME280;33098;52.400;16.880;2023-09-19T10:22:07;100187.91;;;22.15;75.07
24336;BME280;33098;52.400;16.880;2023-09-19T10:24:41;100181.65;;;22.24;72.80
24336;BME280;33098;52.400;16.880;2023-09-19T10:27:10;100189.14;;;22.23;69.51
24336;BME280;33098;52.400;16.880;2023-09-19T10:29:39;100183.80;;;22.06;66.58
24336;BME280;33098;52.400;16.880;2023-09-19T10:32:25;100175.55;;;21.96;68.36
24336;BME280;33098;52.400;16.880;2023-09-19T10:34:55;100175.27;;;22.15;70.06
24336;BME280;33098;52.400;16.880;2023-09-19T10:37:24;100174.84;;;22.37;70.46
24336;BME280;33098;52.400;16.880;2023-09-19T10:39:56;100175.90;;;22.54;67.60
24336;BME280;33098;52.400;16.880;2023-09-19T10:42:23;100178.16;;;22.72;69.92
24336;BME280;33098;52.400;16.880;2023-09-19T10:45:01;100173.96;;;23.05;70.37
24336;BME280;33098;52.400;16.880;2023-09-19T10:47:35;100171.76;;;23.21;67.56
24336;BME280;33098;52.400;16.880;2023-09-19T10:50:20;100179.04;;;23.34;67.03
24336;BME280;33098;52.400;16.880;2023-09-19T10:52:53;100186.20;;;23.28;63.47
24336;BME280;33098;52.400;16.880;2023-09-19T10:55:37;100195.09;;;23.36;65.18
24336;BME280;33098;52.400;16.880;2023-09-19T10:58:10;100201.83;;;23.54;65.81
24336;BME280;33098;52.400;16.880;2023-09-19T11:00:53;100203.86;;;23.46;62.36
24336;BME280;33098;52.400;16.880;2023-09-19T11:03:23;100215.39;;;23.15;58.89
24336;BME280;33098;52.400;16.880;2023-09-19T11:06:12;100213.45;;;22.87;58.82
24336;BME280;33098;52.400;16.880;2023-09-19T11:09:05;100221.05;;;22.75;58.05
24336;BME280;33098;52.400;16.880;2023-09-19T11:11:45;100221.45;;;22.73;56.77
24336;BME280;33098;52.400;16.880;2023-09-19T11:30:52;100227.59;;;22.71;57.72
24336;BME280;33098;52.400;16.880;2023-09-19T11:33:30;100233.61;;;22.81;58.20
24336;BME280;33098;52.400;16.880;2023-09-19T11:36:04;100236.54;;;22.81;57.73
24336;BME280;33098;52.400;16.880;2023-09-19T11:46:55;100234.33;;;22.78;58.70
24336;BME280;33098;52.400;16.880;2023-09-19T11:49:28;100219.63;;;22.87;58.65
24336;BME280;33098;52.400;16.880;2023-09-19T11:51:56;100230.83;;;23.11;58.19
24336;BME280;33098;52.400;16.880;2023-09-19T11:54:24;100225.15;;;23.02;56.82
24336;BME280;33098;52.400;16.880;2023-09-19T11:56:59;100222.75;;;22.86;56.87
24336;BME280;33098;52.400;16.880;2023-09-19T11:59:30;100222.10;;;22.86;57.91
24336;BME280;33098;52.400;16.880;2023-09-19T12:02:01;100221.16;;;23.13;58.71
24336;BME280;33098;52.400;16.880;2023-09-19T12:04:42;100227.98;;;23.56;57.34
24336;BME280;33098;52.400;16.880;2023-09-19T12:07:15;100223.69;;;23.85;54.45
24336;BME280;33098;52.400;16.880;2023-09-19T12:09:47;100218.45;;;23.97;54.41
24336;BME280;33098;52.400;16.880;2023-09-19T12:12:24;100224.52;;;24.13;52.92
24336;BME280;33098;52.400;16.880;2023-09-19T12:14:54;100214.55;;;24.18;53.39
24336;BME280;33098;52.400;16.880;2023-09-19T12:17:38;100214.73;;;24.32;51.76
24336;BME280;33098;52.400;16.880;2023-09-19T12:20:14;100219.56;;;24.44;51.51
24336;BME280;33098;52.400;16.880;2023-09-19T12:22:44;100209.98;;;24.43;50.52
24336;BME280;33098;52.400;16.880;2023-09-19T12:25:16;100208.19;;;24.61;51.77
24336;BME280;33098;52.400;16.880;2023-09-19T12:27:51;100213.54;;;24.87;50.41
24336;BME280;33098;52.400;16.880;2023-09-19T12:30:19;100203.99;;;25.10;51.38
24336;BME280;33098;52.400;16.880;2023-09-19T12:32:47;100211.59;;;25.24;49.27
24336;BME280;33098;52.400;16.880;2023-09-19T12:35:32;100214.23;;;25.34;49.95
24336;BME280;33098;52.400;16.880;2023-09-19T12:38:08;100210.60;;;25.59;50.03
24336;BME280;33098;52.400;16.880;2023-09-19T12:40:39;100209.33;;;25.73;48.09
24336;BME280;33098;52.400;16.880;2023-09-19T12:43:12;100211.60;;;25.76;46.74
24336;BME280;33098;52.400;16.880;2023-09-19T12:45:43;100213.77;;;25.70;46.72
24336;BME280;33098;52.400;16.880;2023-09-19T12:48:27;100214.30;;;25.71;46.51
24336;BME280;33098;52.400;16.880;2023-09-19T12:51:35;100224.06;;;25.36;45.08
24336;BME280;33098;52.400;16.880;2023-09-19T12:54:10;100217.59;;;25.34;46.19
24336;BME280;33098;52.400;16.880;2023-09-19T12:56:43;100219.32;;;25.39;47.02
24336;BME280;33098;52.400;16.880;2023-09-19T12:59:29;100221.80;;;25.52;46.36
24336;BME280;33098;52.400;16.880;2023-09-19T13:02:04;100210.33;;;25.74;47.48
24336;BME280;33098;52.400;16.880;2023-09-19T13:04:33;100212.69;;;26.16;48.39
24336;BME280;33098;52.400;16.880;2023-09-19T13:07:01;100210.85;;;26.50;46.72
24336;BME280;33098;52.400;16.880;2023-09-19T13:09:31;100212.69;;;26.51;46.91
24336;BME280;33098;52.400;16.880;2023-09-19T13:12:33;100211.95;;;26.58;46.73
24336;BME280;33098;52.400;16.880;2023-09-19T13:15:11;100217.57;;;26.77;47.08
24336;BME280;33098;52.400;16.880;2023-09-19T13:17:43;100216.32;;;26.73;45.61
24336;BME280;33098;52.400;16.880;2023-09-19T13:20:26;100220.44;;;26.31;45.48
24336;BME280;33098;52.400;16.880;2023-09-19T13:23:02;100216.23;;;26.04;45.99
24336;BME280;33098;52.400;16.880;2023-09-19T13:25:38;100214.42;;;25.96;46.90
24336;BME280;33098;52.400;16.880;2023-09-19T13:28:07;100206.79;;;26.04;47.07
24336;BME280;33098;52.400;16.880;2023-09-19T13:30:37;100207.52;;;26.36;47.60
24336;BME280;33098;52.400;16.880;2023-09-19T13:33:13;100210.45;;;26.49;46.29
24336;BME280;33098;52.400;16.880;2023-09-19T13:35:47;100208.34;;;26.50;45.85
24336;BME280;33098;52.400;16.880;2023-09-19T13:38:15;100208.13;;;26.52;46.62
24336;BME280;33098;52.400;16.880;2023-09-19T13:40:42;100216.40;;;26.82;46.35
24336;BME280;33098;52.400;16.880;2023-09-19T13:43:13;100219.54;;;26.81;45.43
24336;BME280;33098;52.400;16.880;2023-09-19T13:45:40;100225.02;;;26.61;45.41
24336;BME280;33098;52.400;16.880;2023-09-19T13:48:12;100224.31;;;26.33;45.95